createdAt,value
2023-05-09T00:00:15.519Z,14.70
2023-05-09T00:02:47.794Z,14.70
2023-05-09T00:05:19.773Z,14.70
2023-05-09T00:07:52.644Z,14.60
2023-05-09T00:10:24.594Z,14.40
2023-05-09T00:12:56.801Z,14.30
2023-05-09T00:15:29.114Z,14.20
2023-05-09T00:18:00.668Z,14.10
2023-05-09T00:20:33.822Z,14.20
2023-05-09T00:23:06.182Z,14.20
2023-05-09T00:25:37.558Z,14.20
2023-05-09T00:28:09.022Z,14.30
2023-05-09T00:30:40.534Z,14.30
2023-05-09T00:33:12.068Z,14.30
2023-05-09T00:35:43.569Z,14.40
2023-05-09T00:38:15.136Z,14.40
2023-05-09T00:40:46.540Z,14.40
2023-05-09T00:43:18.366Z,14.40
2023-05-09T00:45:50.562Z,14.40
2023-05-09T00:48:22.892Z,14.40
2023-05-09T00:50:54.377Z,14.40
2023-05-09T00:53:27.874Z,14.40
2023-05-09T00:56:01.107Z,14.40
2023-05-09T00:58:32.907Z,14.30
2023-05-09T01:01:04.958Z,14.30
2023-05-09T01:03:37.520Z,14.40
2023-05-09T01:06:13.113Z,14.40
2023-05-09T01:08:49.499Z,14.40
2023-05-09T01:11:24.246Z,14.50
2023-05-09T01:14:00.196Z,14.50
2023-05-09T01:16:35.516Z,14.50
2023-05-09T01:19:12.709Z,14.50
2023-05-09T01:21:47.636Z,14.50
2023-05-09T01:24:28.097Z,14.50
2023-05-09T01:27:09.236Z,14.60
2023-05-09T01:29:43.762Z,14.60
2023-05-09T01:32:19.093Z,14.50
2023-05-09T01:34:53.258Z,14.50
2023-05-09T01:37:29.135Z,14.50
2023-05-09T01:40:04.400Z,14.50
2023-05-09T01:42:40.469Z,14.50
2023-05-09T01:45:13.887Z,14.50
2023-05-09T01:47:46.033Z,14.50
2023-05-09T01:50:21.153Z,14.50
2023-05-09T01:52:55.616Z,14.40
2023-05-09T01:55:30.555Z,14.30
2023-05-09T01:58:02.182Z,14.20
2023-05-09T02:00:35.025Z,14.10
2023-05-09T02:03:07.072Z,14.00
2023-05-09T02:05:39.649Z,13.90
2023-05-09T02:08:11.777Z,13.90
2023-05-09T02:10:45.620Z,13.90
2023-05-09T02:13:17.834Z,13.90
2023-05-09T02:15:50.553Z,13.90
2023-05-09T02:18:22.897Z,13.90
2023-05-09T02:20:54.818Z,14.00
2023-05-09T02:23:26.616Z,14.10
2023-05-09T02:25:58.788Z,14.20
2023-05-09T02:28:31.277Z,14.30
2023-05-09T02:31:06.581Z,14.30
2023-05-09T02:33:40.089Z,14.30
2023-05-09T02:36:13.355Z,14.30
2023-05-09T02:38:45.911Z,14.20
2023-05-09T02:41:18.699Z,14.20
2023-05-09T02:43:50.753Z,14.20
2023-05-09T02:46:22.155Z,14.20
2023-05-09T02:48:53.764Z,14.10
2023-05-09T02:51:25.245Z,14.10
2023-05-09T02:53:56.792Z,14.10
2023-05-09T02:56:28.212Z,14.10
2023-05-09T02:58:59.744Z,14.10
2023-05-09T03:01:31.329Z,14.10
2023-05-09T03:04:03.064Z,14.10
2023-05-09T03:06:34.495Z,14.10
2023-05-09T03:09:06.738Z,14.10
2023-05-09T03:11:38.159Z,14.10
2023-05-09T03:14:10.787Z,14.10
2023-05-09T03:16:42.369Z,14.10
2023-05-09T03:19:14.038Z,14.10
2023-05-09T03:21:45.536Z,14.00
2023-05-09T03:24:17.002Z,14.00
2023-05-09T03:26:48.580Z,14.00
2023-05-09T03:29:20.200Z,14.00
2023-05-09T03:31:52.143Z,13.90
2023-05-09T03:34:23.748Z,13.90
2023-05-09T03:36:55.718Z,13.80
2023-05-09T03:39:27.562Z,13.60
2023-05-09T03:41:58.969Z,13.60
2023-05-09T03:44:30.450Z,13.50
2023-05-09T03:47:01.922Z,13.40
2023-05-09T03:49:33.420Z,13.30
2023-05-09T03:52:05.159Z,13.30
2023-05-09T03:54:36.616Z,13.30
2023-05-09T03:57:08.022Z,13.30
2023-05-09T03:59:39.696Z,13.30
2023-05-09T04:02:11.256Z,13.30
2023-05-09T04:04:42.875Z,13.40
2023-05-09T04:07:14.352Z,13.40
2023-05-09T04:09:45.904Z,13.40
2023-05-09T04:12:17.302Z,13.40
2023-05-09T04:14:49.113Z,13.40
2023-05-09T04:17:20.943Z,13.40
2023-05-09T04:19:52.772Z,13.40
2023-05-09T04:22:24.373Z,13.40
2023-05-09T04:24:57.520Z,13.40
2023-05-09T04:27:28.928Z,13.30
2023-05-09T04:30:00.471Z,13.40
2023-05-09T04:32:32.162Z,13.40
2023-05-09T04:35:03.996Z,13.40
2023-05-09T04:37:35.668Z,13.50
2023-05-09T04:40:10.278Z,13.60
2023-05-09T04:42:42.341Z,13.70
2023-05-09T04:45:14.280Z,13.80
2023-05-09T04:47:45.992Z,14.00
2023-05-09T04:50:17.784Z,14.20
2023-05-09T04:52:49.326Z,14.40
2023-05-09T04:55:20.714Z,14.70
2023-05-09T04:57:52.271Z,15.00
2023-05-09T05:00:23.686Z,15.30
2023-05-09T05:02:55.342Z,15.50
2023-05-09T05:05:27.138Z,15.60
2023-05-09T05:07:59.210Z,15.60
2023-05-09T05:10:30.842Z,15.70
2023-05-09T05:13:02.379Z,15.80
2023-05-09T05:15:33.823Z,15.80
2023-05-09T05:18:05.705Z,15.90
2023-05-09T05:20:37.241Z,15.90
2023-05-09T05:23:08.730Z,16.00
2023-05-09T05:25:40.703Z,16.10
2023-05-09T05:28:12.588Z,16.30
2023-05-09T05:30:44.118Z,16.50
2023-05-09T05:33:15.912Z,16.80
2023-05-09T05:35:47.339Z,17.10
2023-05-09T05:38:18.954Z,17.80
2023-05-09T05:40:50.449Z,18.90
2023-05-09T05:43:21.948Z,18.90
2023-05-09T05:45:53.363Z,18.70
2023-05-09T05:48:24.905Z,18.40
2023-05-09T05:50:56.396Z,18.30
2023-05-09T05:53:27.984Z,18.10
2023-05-09T05:55:59.585Z,18.00
2023-05-09T05:58:33.923Z,17.80
2023-05-09T06:01:05.721Z,17.60
2023-05-09T06:03:38.243Z,17.50
2023-05-09T06:06:09.946Z,17.50
2023-05-09T06:08:41.439Z,17.50
2023-05-09T06:11:12.915Z,17.40
2023-05-09T06:13:44.635Z,17.50
2023-05-09T06:16:20.063Z,17.60
2023-05-09T06:18:49.355Z,17.60
2023-05-09T06:21:20.864Z,17.60
2023-05-09T06:24:06.646Z,17.50
2023-05-09T06:26:26.728Z,17.30
2023-05-09T06:28:58.188Z,17.10
2023-05-09T06:31:29.740Z,17.10
2023-05-09T06:34:01.437Z,17.30
2023-05-09T06:36:33.452Z,17.50
2023-05-09T06:39:05.628Z,17.40
2023-05-09T06:41:37.034Z,17.60
2023-05-09T06:44:08.493Z,17.90
2023-05-09T06:46:39.669Z,17.90
2023-05-09T06:49:13.074Z,17.80
2023-05-09T06:51:44.636Z,17.80
2023-05-09T06:54:17.353Z,17.80
2023-05-09T06:56:48.818Z,17.90
2023-05-09T06:59:20.220Z,17.70
2023-05-09T07:01:51.805Z,18.10
2023-05-09T07:04:23.292Z,19.00
2023-05-09T07:06:54.806Z,19.80
2023-05-09T07:09:28.318Z,20.00
2023-05-09T07:12:01.570Z,19.40
2023-05-09T07:14:33.445Z,19.10
2023-05-09T07:17:21.916Z,18.90
2023-05-09T07:19:41.867Z,19.10
2023-05-09T07:22:13.950Z,19.30
2023-05-09T07:24:46.400Z,19.80
2023-05-09T07:27:17.931Z,20.20
2023-05-09T07:29:51.248Z,20.30
2023-05-09T07:32:22.727Z,20.40
2023-05-09T07:34:54.343Z,20.50
2023-05-09T07:37:25.910Z,20.80
2023-05-09T07:39:57.521Z,21.00
2023-05-09T07:42:30.278Z,21.20
2023-05-09T07:45:04.509Z,21.40
2023-05-09T07:47:37.855Z,21.50
2023-05-09T07:50:10.662Z,21.40
2023-05-09T07:52:42.201Z,21.10
2023-05-09T08:00:36.127Z,20.30
2023-05-09T08:03:07.836Z,20.10
2023-05-09T08:05:39.936Z,20.30
2023-05-09T08:08:11.598Z,20.50
2023-05-09T08:10:43.094Z,20.90
2023-05-09T08:13:14.639Z,21.10
2023-05-09T08:15:46.328Z,21.20
2023-05-09T08:18:17.913Z,21.40
2023-05-09T08:20:49.420Z,21.20
2023-05-09T08:23:21.166Z,20.90
2023-05-09T08:25:56.258Z,21.10
2023-05-09T08:28:28.452Z,21.40
2023-05-09T08:30:59.960Z,21.80
2023-05-09T08:33:31.485Z,22.10
2023-05-09T08:36:03.104Z,22.60
2023-05-09T08:38:36.225Z,22.70
2023-05-09T08:41:07.827Z,22.80
2023-05-09T08:43:41.564Z,22.80
2023-05-09T08:46:14.580Z,22.80
2023-05-09T08:48:46.911Z,22.70
2023-05-09T08:51:18.627Z,22.50
2023-05-09T08:53:51.285Z,22.50
2023-05-09T08:56:23.108Z,22.40
2023-05-09T08:58:56.661Z,22.10
2023-05-09T09:01:28.765Z,22.10
2023-05-09T09:04:01.391Z,22.20
2023-05-09T09:06:34.896Z,22.20
2023-05-09T09:09:09.154Z,21.90
2023-05-09T09:11:42.989Z,21.50
2023-05-09T09:14:16.984Z,21.50
2023-05-09T09:16:50.126Z,21.40
2023-05-09T09:19:23.385Z,21.40
2023-05-09T09:21:56.831Z,21.20
2023-05-09T09:24:28.294Z,21.20
2023-05-09T09:27:01.488Z,21.50
2023-05-09T09:29:34.061Z,21.80
2023-05-09T09:32:07.250Z,22.10
2023-05-09T09:34:38.948Z,21.80
2023-05-09T09:37:10.566Z,21.40
2023-05-09T09:39:50.307Z,21.40
2023-05-09T09:42:24.031Z,21.30
2023-05-09T09:45:01.752Z,21.60
2023-05-09T09:47:36.545Z,22.10
2023-05-09T09:50:15.712Z,22.60
2023-05-09T09:53:07.205Z,22.90
2023-05-09T09:55:38.627Z,22.90
2023-05-09T09:58:21.302Z,22.50
2023-05-09T10:01:07.754Z,22.30
2023-05-09T10:03:41.097Z,22.60
2023-05-09T10:06:13.289Z,23.10
2023-05-09T10:08:47.298Z,23.30
2023-05-09T10:11:18.830Z,23.20
2023-05-09T10:13:50.335Z,22.90
2023-05-09T10:16:35.708Z,22.90
2023-05-09T10:18:55.641Z,23.10
2023-05-09T10:21:29.472Z,23.00
2023-05-09T10:24:02.786Z,22.90
2023-05-09T10:26:37.308Z,22.90
2023-05-09T10:29:11.644Z,22.80
2023-05-09T10:31:45.431Z,22.70
2023-05-09T10:34:18.573Z,22.60
2023-05-09T10:36:50.930Z,22.60
2023-05-09T10:39:23.456Z,22.60
2023-05-09T10:41:56.082Z,22.70
2023-05-09T10:44:27.526Z,22.70
2023-05-09T10:47:00.330Z,22.80
2023-05-09T10:49:34.362Z,22.80
2023-05-09T10:52:06.264Z,22.90
2023-05-09T10:54:38.772Z,22.90
2023-05-09T10:57:11.766Z,22.90
2023-05-09T10:59:45.251Z,23.10
2023-05-09T11:02:19.829Z,23.20
2023-05-09T11:04:55.793Z,23.40
2023-05-09T11:07:30.375Z,23.40
2023-05-09T11:10:11.488Z,23.40
2023-05-09T11:12:58.270Z,23.50
2023-05-09T11:15:31.975Z,23.60
2023-05-09T11:18:11.239Z,23.80
2023-05-09T11:20:47.029Z,23.80
2023-05-09T11:23:19.691Z,23.90
2023-05-09T11:25:51.671Z,23.90
2023-05-09T11:28:30.771Z,23.90
2023-05-09T11:31:12.074Z,23.90
2023-05-09T11:33:46.630Z,24.10
2023-05-09T11:36:24.888Z,24.30
2023-05-09T11:39:05.027Z,24.60
2023-05-09T11:41:44.498Z,24.80
2023-05-09T11:44:21.121Z,24.80
2023-05-09T11:46:52.561Z,24.70
2023-05-09T11:49:24.460Z,24.70
2023-05-09T11:51:57.535Z,24.70
2023-05-09T11:54:29.253Z,24.90
2023-05-09T11:57:01.175Z,24.90
2023-05-09T11:59:32.816Z,25.00
2023-05-09T12:02:06.653Z,25.10
2023-05-09T12:04:38.809Z,25.20
2023-05-09T12:07:13.152Z,25.40
2023-05-09T12:09:44.938Z,25.50
2023-05-09T12:12:18.090Z,25.40
2023-05-09T12:14:50.843Z,25.40
2023-05-09T12:17:23.295Z,25.30
2023-05-09T12:19:55.164Z,25.40
2023-05-09T12:22:26.834Z,25.40
2023-05-09T12:24:59.406Z,25.40
2023-05-09T12:27:33.172Z,25.40
2023-05-09T12:30:07.566Z,25.30
2023-05-09T12:32:40.657Z,25.20
2023-05-09T12:35:12.640Z,25.10
2023-05-09T12:37:57.121Z,25.00
2023-05-09T12:40:28.540Z,25.10
2023-05-09T12:43:02.105Z,25.10
2023-05-09T12:45:35.321Z,25.20
2023-05-09T12:48:08.611Z,25.20
2023-05-09T12:50:40.112Z,25.30
2023-05-09T12:53:11.647Z,25.20
2023-05-09T12:55:43.807Z,25.00
2023-05-09T12:58:16.946Z,24.90
2023-05-09T13:00:48.574Z,24.90
2023-05-09T13:03:29.891Z,24.90
2023-05-09T13:06:02.551Z,24.80
2023-05-09T13:08:34.610Z,24.80
2023-05-09T13:11:15.670Z,24.80
2023-05-09T13:13:40.075Z,24.90
2023-05-09T13:16:13.476Z,24.90
2023-05-09T13:18:45.178Z,25.00
2023-05-09T13:21:16.824Z,25.00
2023-05-09T13:23:50.157Z,24.90
2023-05-09T13:26:22.845Z,24.90
2023-05-09T13:28:54.596Z,24.90
2023-05-09T13:31:26.179Z,24.90
2023-05-09T13:33:57.775Z,24.90
2023-05-09T13:36:29.516Z,25.00
2023-05-09T13:39:01.140Z,25.10
2023-05-09T13:41:34.273Z,25.30
2023-05-09T13:44:07.342Z,25.40
2023-05-09T13:46:39.054Z,25.40
2023-05-09T13:49:10.938Z,25.40
2023-05-09T13:51:42.465Z,25.40
2023-05-09T13:54:15.631Z,25.30
2023-05-09T13:56:47.705Z,25.10
2023-05-09T13:59:19.460Z,25.00
2023-05-09T14:01:50.963Z,25.10
2023-05-09T14:04:22.536Z,25.20
2023-05-09T14:06:54.216Z,25.00
2023-05-09T14:09:26.275Z,25.10
2023-05-09T14:11:58.460Z,25.00
2023-05-09T14:14:30.082Z,25.10
2023-05-09T14:17:02.769Z,25.10
2023-05-09T14:19:34.306Z,25.00
2023-05-09T14:22:05.771Z,24.90
2023-05-09T14:24:47.310Z,24.90
2023-05-09T14:27:15.130Z,24.90
2023-05-09T14:29:46.619Z,24.90
2023-05-09T14:32:18.134Z,24.70
2023-05-09T14:34:49.830Z,24.70
2023-05-09T14:37:21.971Z,24.50
2023-05-09T14:39:53.405Z,24.30
2023-05-09T14:42:24.999Z,24.20
2023-05-09T14:44:56.570Z,24.10
2023-05-09T14:47:28.088Z,24.10
2023-05-09T14:50:00.135Z,24.00
2023-05-09T14:52:31.719Z,23.90
2023-05-09T14:55:03.517Z,23.80
2023-05-09T14:57:35.176Z,23.80
2023-05-09T15:00:20.294Z,23.60
2023-05-09T15:02:43.188Z,23.50
2023-05-09T15:05:14.657Z,23.50
2023-05-09T15:07:46.338Z,23.40
2023-05-09T15:10:18.085Z,23.30
2023-05-09T15:12:50.185Z,23.10
2023-05-09T15:15:24.045Z,23.00
2023-05-09T15:17:56.180Z,22.70
2023-05-09T15:20:27.676Z,22.50
2023-05-09T15:22:59.257Z,22.20
2023-05-09T15:25:30.792Z,21.90
2023-05-09T15:28:02.412Z,21.80
2023-05-09T15:30:34.620Z,21.60
2023-05-09T15:33:07.294Z,21.50
2023-05-09T15:35:39.372Z,21.30
2023-05-09T15:38:12.412Z,21.10
2023-05-09T15:40:43.928Z,21.00
2023-05-09T15:43:15.437Z,20.80
2023-05-09T15:45:47.135Z,20.50
2023-05-09T15:48:19.131Z,20.20
2023-05-09T15:50:53.109Z,19.80
2023-05-09T15:53:24.620Z,19.40
2023-05-09T15:55:56.868Z,19.10
2023-05-09T15:58:28.385Z,18.90
2023-05-09T16:00:59.817Z,18.60
2023-05-09T16:03:31.558Z,18.30
2023-05-09T16:06:03.623Z,18.10
2023-05-09T16:08:35.094Z,17.90
2023-05-09T16:11:06.686Z,17.70
2023-05-09T16:13:38.495Z,17.50
2023-05-09T16:16:10.176Z,17.30
2023-05-09T16:18:41.708Z,17.20
2023-05-09T16:21:13.234Z,17.00
2023-05-09T16:23:44.866Z,16.90
2023-05-09T16:26:16.312Z,16.70
2023-05-09T16:28:48.895Z,16.60
2023-05-09T16:31:20.826Z,16.50
2023-05-09T16:33:52.379Z,16.40
2023-05-09T16:36:23.991Z,16.20
2023-05-09T16:38:55.988Z,16.10
2023-05-09T16:41:27.687Z,16.00
2023-05-09T16:43:59.526Z,15.90
2023-05-09T16:46:31.008Z,15.90
2023-05-09T16:49:02.802Z,15.90
2023-05-09T16:51:34.295Z,15.90
2023-05-09T16:54:05.889Z,15.90
2023-05-09T16:56:37.787Z,15.90
2023-05-09T16:59:09.552Z,15.90
2023-05-09T17:01:42.048Z,15.90
2023-05-09T17:04:13.621Z,15.90
2023-05-09T17:06:45.273Z,15.90
2023-05-09T17:09:16.793Z,15.90
2023-05-09T17:11:48.919Z,15.90
2023-05-09T17:14:20.696Z,15.80
2023-05-09T17:16:52.258Z,15.80
2023-05-09T17:19:23.791Z,15.70
2023-05-09T17:21:56.346Z,15.70
2023-05-09T17:24:27.763Z,15.70
2023-05-09T17:26:59.436Z,15.70
2023-05-09T17:29:31.733Z,15.70
2023-05-09T17:32:03.344Z,15.70
2023-05-09T17:34:34.962Z,15.60
2023-05-09T17:37:07.513Z,15.50
2023-05-09T17:39:39.021Z,15.50
2023-05-09T17:42:12.141Z,15.50
2023-05-09T17:44:44.492Z,15.50
2023-05-09T17:47:16.435Z,15.50
2023-05-09T17:49:48.028Z,15.40
2023-05-09T17:52:19.513Z,15.40
2023-05-09T17:54:50.986Z,15.30
2023-05-09T17:57:22.709Z,15.30
2023-05-09T17:59:54.273Z,15.20
2023-05-09T18:02:25.935Z,15.20
2023-05-09T18:04:57.460Z,15.20
2023-05-09T18:07:29.062Z,15.10
2023-05-09T18:10:00.716Z,15.10
2023-05-09T18:12:35.651Z,15.00
2023-05-09T18:15:10.059Z,15.00
2023-05-09T18:17:41.806Z,14.90
2023-05-09T18:20:14.310Z,14.90
2023-05-09T18:22:46.076Z,14.80
2023-05-09T18:25:17.643Z,14.80
2023-05-09T18:27:49.571Z,14.70
2023-05-09T18:30:22.070Z,14.70
2023-05-09T18:32:53.802Z,14.70
2023-05-09T18:35:25.409Z,14.70
2023-05-09T18:37:57.245Z,14.70
2023-05-09T18:40:28.794Z,14.70
2023-05-09T18:43:00.766Z,14.60
2023-05-09T18:45:33.767Z,14.60
2023-05-09T18:48:06.393Z,14.70
2023-05-09T18:50:37.737Z,14.70
2023-05-09T18:53:09.758Z,14.80
2023-05-09T18:55:41.306Z,14.80
2023-05-09T18:58:13.498Z,14.80
2023-05-09T19:00:46.921Z,14.80
2023-05-09T19:03:18.821Z,14.80
2023-05-09T19:05:50.490Z,14.70
2023-05-09T19:08:22.128Z,14.70
2023-05-09T19:10:53.886Z,14.70
2023-05-09T19:13:25.644Z,14.70
2023-05-09T19:15:57.293Z,14.70
2023-05-09T19:18:28.850Z,14.70
2023-05-09T19:21:01.837Z,14.70
2023-05-09T19:23:33.347Z,14.70
2023-05-09T19:26:05.189Z,14.70
2023-05-09T19:28:36.765Z,14.70
2023-05-09T19:31:09.207Z,14.60
2023-05-09T19:33:41.073Z,14.60
2023-05-09T19:36:12.587Z,14.60
2023-05-09T19:38:44.122Z,14.60
2023-05-09T19:41:15.746Z,14.60
2023-05-09T19:43:48.561Z,14.50
2023-05-09T19:46:20.152Z,14.60
2023-05-09T19:48:51.690Z,14.60
2023-05-09T19:51:23.198Z,14.60
2023-05-09T19:53:54.765Z,14.60
2023-05-09T19:56:26.425Z,14.60
2023-05-09T19:58:58.015Z,14.60
2023-05-09T20:01:29.777Z,14.50
2023-05-09T20:04:01.397Z,14.50
2023-05-09T20:06:34.029Z,14.60
2023-05-09T20:09:05.702Z,14.50
2023-05-09T20:11:37.223Z,14.60
2023-05-09T20:14:08.888Z,14.60
2023-05-09T20:16:41.951Z,14.60
2023-05-09T20:19:14.867Z,14.60
2023-05-09T20:21:46.447Z,14.60
2023-05-09T20:24:17.987Z,14.60
2023-05-09T20:26:49.383Z,14.50
2023-05-09T20:29:20.853Z,14.60
2023-05-09T20:31:52.645Z,14.50
2023-05-09T20:34:24.840Z,14.60
2023-05-09T20:36:56.500Z,14.50
2023-05-09T20:39:28.114Z,14.50
2023-05-09T20:42:01.296Z,14.50
2023-05-09T20:44:32.782Z,14.50
2023-05-09T20:47:04.240Z,14.60
2023-05-09T20:49:35.804Z,14.60
2023-05-09T20:52:07.535Z,14.50
2023-05-09T20:54:38.983Z,14.50
2023-05-09T20:57:10.466Z,14.50
2023-05-09T20:59:42.169Z,14.40
2023-05-09T21:02:14.321Z,14.40
2023-05-09T21:04:46.840Z,14.40
2023-05-09T21:07:19.511Z,14.40
2023-05-09T21:09:51.294Z,14.40
2023-05-09T21:12:22.753Z,14.40
2023-05-09T21:14:54.196Z,14.40
2023-05-09T21:17:25.725Z,14.40
2023-05-09T21:19:57.175Z,14.40
2023-05-09T21:22:28.693Z,14.40
2023-05-09T21:25:00.107Z,14.40
2023-05-09T21:27:32.463Z,14.40
2023-05-09T21:30:03.908Z,14.40
2023-05-09T21:32:35.453Z,14.40
2023-05-09T21:35:09.556Z,14.30
2023-05-09T21:37:43.443Z,14.40
2023-05-09T21:40:15.938Z,14.30
2023-05-09T21:42:48.321Z,14.30
2023-05-09T21:45:20.177Z,14.30
2023-05-09T21:47:51.843Z,14.30
2023-05-09T21:50:23.777Z,14.30
2023-05-09T21:52:56.244Z,14.30
2023-05-09T21:55:28.015Z,14.20
2023-05-09T21:57:59.486Z,14.20
2023-05-09T22:00:31.613Z,14.20
2023-05-09T22:03:03.208Z,14.10
2023-05-09T22:05:34.631Z,14.10
2023-05-09T22:08:07.558Z,14.10
2023-05-09T22:10:38.935Z,14.00
2023-05-09T22:13:10.403Z,14.00
2023-05-09T22:15:42.719Z,14.00
2023-05-09T22:18:14.192Z,14.00
2023-05-09T22:20:45.611Z,13.90
2023-05-09T22:23:17.046Z,13.90
2023-05-09T22:25:48.404Z,13.90
2023-05-09T22:28:19.782Z,13.90
2023-05-09T22:30:51.211Z,14.00
2023-05-09T22:33:22.924Z,13.90
2023-05-09T22:35:54.434Z,13.90
2023-05-09T22:38:25.995Z,14.00
2023-05-09T22:40:57.531Z,14.00
2023-05-09T22:43:36.893Z,14.00
2023-05-09T22:46:03.274Z,13.90
2023-05-09T22:48:34.722Z,13.90
2023-05-09T22:51:06.938Z,13.80
2023-05-09T22:53:38.322Z,13.80
2023-05-09T22:56:10.713Z,13.90
2023-05-09T22:58:42.122Z,13.90
2023-05-09T23:01:13.823Z,13.90
2023-05-09T23:03:45.389Z,14.00
2023-05-09T23:06:17.060Z,14.00
2023-05-09T23:08:48.737Z,14.10
2023-05-09T23:11:20.847Z,14.10
2023-05-09T23:13:52.597Z,14.10
2023-05-09T23:16:24.145Z,14.10
2023-05-09T23:18:55.817Z,14.00
2023-05-09T23:21:27.373Z,14.00
2023-05-09T23:23:58.834Z,13.90
2023-05-09T23:26:30.237Z,13.90
2023-05-09T23:29:01.875Z,13.80
2023-05-09T23:31:33.432Z,13.70
2023-05-09T23:34:04.903Z,13.70
2023-05-09T23:36:36.401Z,13.70
2023-05-09T23:39:07.979Z,13.70
2023-05-09T23:41:39.454Z,13.70
2023-05-09T23:44:10.912Z,13.80
2023-05-09T23:46:42.382Z,13.80
2023-05-09T23:49:14.899Z,13.80
2023-05-09T23:51:46.468Z,13.80
2023-05-09T23:54:17.960Z,13.80
2023-05-09T23:56:49.934Z,13.80
2023-05-09T23:59:21.598Z,13.80
